Time;durP1;ratioP1;P1;durP2;ratioP2;P2;SDS_P1;SDS_P2;PMS_P1;PMS_P2;Temp;Humidity;BMP_temperature;BMP_pressure;BME280_temperature;BME280_humidity;BME280_pressure;Samples;Min_cycle;Max_cycle;Signal;HPM_P1;HPM_P2
2024/04/06 00:01:41;;;;;;;7.15;2.70;;;;;;;;;;5076783;28;20040;-80
2024/04/06 00:04:09;;;;;;;7.55;2.85;;;;;;;;;;5076602;28;20028;-80
2024/04/06 00:06:38;;;;;;;8.82;3.00;;;;;;;;;;5054603;28;20055;-80
2024/04/06 00:09:07;;;;;;;7.85;3.03;;;;;;;;;;5073060;28;20044;-80
2024/04/06 00:11:35;;;;;;;8.40;3.38;;;;;;;;;;5056435;28;20059;-81
2024/04/06 00:14:04;;;;;;;6.10;2.80;;;;;;;;;;5073119;28;20048;-81
2024/04/06 00:16:32;;;;;;;6.68;3.03;;;;;;;;;;5073517;28;20041;-80
2024/04/06 00:21:57;;;;;;;12.48;3.30;;;;;;;;;;5073218;28;20036;-81
2024/04/06 00:24:27;;;;;;;5.25;2.33;;;;;;;;;;5089015;28;20389;-80
2024/04/06 00:26:55;;;;;;;7.75;3.17;;;;;;;;;;5092507;28;20039;-80
2024/04/06 00:29:23;;;;;;;7.07;2.83;;;;;;;;;;5088390;28;20035;-80
2024/04/06 00:31:51;;;;;;;10.63;3.90;;;;;;;;;;5090554;28;20031;-79
2024/04/06 00:34:20;;;;;;;8.32;3.85;;;;;;;;;;5090301;28;20486;-80
2024/04/06 00:36:48;;;;;;;9.15;2.22;;;;;;;;;;5078298;28;20413;-80
2024/04/06 00:39:16;;;;;;;6.50;2.83;;;;;;;;;;5074339;28;20032;-80
2024/04/06 00:41:46;;;;;;;6.82;2.50;;;;;;;;;;5078382;28;20386;-80
2024/04/06 00:44:14;;;;;;;6.30;2.55;;;;;;;;;;5090383;28;20063;-80
2024/04/06 00:49:35;;;;;;;6.65;2.63;;;;;;;;;;5090840;28;20054;-80
2024/04/06 00:52:04;;;;;;;9.27;2.92;;;;;;;;;;5090716;28;20032;-80
2024/04/06 00:54:32;;;;;;;6.22;3.58;;;;;;;;;;5090406;28;20043;-81
2024/04/06 00:57:01;;;;;;;12.45;2.60;;;;;;;;;;5055642;28;20040;-81
2024/04/06 00:59:29;;;;;;;5.20;2.53;;;;;;;;;;5090791;28;20035;-81
2024/04/06 01:01:57;;;;;;;6.30;3.10;;;;;;;;;;5088135;28;20024;-80
2024/04/06 01:04:26;;;;;;;6.95;3.28;;;;;;;;;;5090568;28;20055;-81
2024/04/06 01:06:56;;;;;;;7.90;2.70;;;;;;;;;;5065482;28;20048;-79
2024/04/06 01:09:25;;;;;;;6.07;3.30;;;;;;;;;;5070613;28;20379;-80
2024/04/06 01:11:53;;;;;;;6.07;2.08;;;;;;;;;;5070460;28;20436;-80
2024/04/06 01:14:21;;;;;;;6.03;2.92;;;;;;;;;;5083719;28;20051;-80
2024/04/06 01:16:49;;;;;;;8.60;3.15;;;;;;;;;;5073871;28;20048;-80
2024/04/06 01:19:17;;;;;;;7.22;2.65;;;;;;;;;;5090813;28;20043;-81
2024/04/06 01:21:46;;;;;;;6.63;3.47;;;;;;;;;;5090143;28;20473;-81
2024/04/06 01:24:27;;;;;;;9.40;3.10;;;;;;;;;;5089289;28;20040;-81
2024/04/06 01:27:01;;;;;;;10.27;3.90;;;;;;;;;;5054569;28;20033;-81
2024/04/06 01:29:30;;;;;;;10.80;4.20;;;;;;;;;;5077829;28;20028;-81
2024/04/06 01:31:59;;;;;;;10.80;3.40;;;;;;;;;;5075109;28;20372;-81
2024/04/06 01:34:27;;;;;;;8.60;5.00;;;;;;;;;;5089803;28;20481;-80
2024/04/06 01:36:56;;;;;;;9.65;4.20;;;;;;;;;;5091562;28;20405;-79
2024/04/06 01:39:24;;;;;;;10.13;4.65;;;;;;;;;;5072680;28;20043;-80
2024/04/06 01:41:53;;;;;;;10.07;5.05;;;;;;;;;;5091083;28;20497;-80
2024/04/06 01:44:21;;;;;;;10.82;4.63;;;;;;;;;;5091459;28;20040;-80
2024/04/06 01:46:49;;;;;;;9.88;4.50;;;;;;;;;;5091568;28;20035;-80
2024/04/06 01:49:18;;;;;;;8.18;4.40;;;;;;;;;;5074626;28;20039;-81
2024/04/06 01:51:46;;;;;;;9.23;4.80;;;;;;;;;;5092045;28;20040;-80
2024/04/06 01:54:14;;;;;;;12.30;4.93;;;;;;;;;;5091840;28;20032;-80
2024/04/06 01:56:42;;;;;;;10.63;4.93;;;;;;;;;;5091520;28;20050;-80
2024/04/06 01:59:10;;;;;;;12.13;5.32;;;;;;;;;;5073863;28;20035;-80
2024/04/06 02:01:39;;;;;;;11.88;4.55;;;;;;;;;;5090613;28;20036;-80
2024/04/06 02:04:07;;;;;;;8.88;4.63;;;;;;;;;;5090975;28;20040;-81
2024/04/06 02:06:37;;;;;;;8.88;4.70;;;;;;;;;;5088685;28;20059;-81
2024/04/06 02:09:05;;;;;;;12.60;5.10;;;;;;;;;;5056273;28;20064;-80
2024/04/06 02:11:34;;;;;;;10.75;4.90;;;;;;;;;;5091140;28;20493;-82
2024/04/06 02:14:02;;;;;;;14.98;4.93;;;;;;;;;;5073216;28;20043;-82
2024/04/06 02:16:30;;;;;;;7.13;4.70;;;;;;;;;;5091067;28;20032;-82
2024/04/06 02:18:59;;;;;;;9.18;5.15;;;;;;;;;;5092347;28;20036;-79
2024/04/06 02:21:27;;;;;;;8.02;4.70;;;;;;;;;;5099631;28;20048;-82
2024/04/06 02:23:55;;;;;;;9.77;5.28;;;;;;;;;;5085440;28;20100;-80
2024/04/06 02:26:24;;;;;;;8.70;4.18;;;;;;;;;;5102878;28;20355;-81
2024/04/06 02:28:52;;;;;;;12.70;5.30;;;;;;;;;;5102923;28;20090;-80
2024/04/06 02:31:22;;;;;;;9.10;5.07;;;;;;;;;;5099487;28;20042;-80
2024/04/06 02:33:50;;;;;;;10.50;4.35;;;;;;;;;;5099876;28;20036;-80
2024/04/06 02:36:19;;;;;;;11.82;5.55;;;;;;;;;;5116840;28;20036;-82
2024/04/06 02:38:51;;;;;;;15.70;6.68;;;;;;;;;;5116596;28;20028;-81
2024/04/06 02:41:19;;;;;;;8.82;4.88;;;;;;;;;;5106135;28;20040;-81
2024/04/06 02:43:49;;;;;;;7.35;4.93;;;;;;;;;;5091688;28;20044;-81
2024/04/06 02:46:18;;;;;;;6.57;4.38;;;;;;;;;;5091654;28;20040;-81
2024/04/06 02:48:47;;;;;;;9.15;4.53;;;;;;;;;;5091498;28;20048;-81
2024/04/06 02:51:16;;;;;;;12.90;5.95;;;;;;;;;;5091776;28;20047;-80
2024/04/06 02:53:44;;;;;;;12.95;4.60;;;;;;;;;;5073803;28;20052;-80
2024/04/06 02:56:13;;;;;;;10.55;4.85;;;;;;;;;;5091017;28;20055;-81
2024/04/06 02:58:42;;;;;;;9.48;5.38;;;;;;;;;;5091557;28;20051;-80
2024/04/06 03:01:10;;;;;;;12.60;5.45;;;;;;;;;;5091316;28;20048;-80
2024/04/06 03:03:38;;;;;;;10.90;6.00;;;;;;;;;;5091242;28;20039;-81
2024/04/06 03:06:06;;;;;;;10.30;5.57;;;;;;;;;;5091420;28;20043;-81
2024/04/06 03:08:35;;;;;;;10.18;5.07;;;;;;;;;;5091396;28;20044;-81
2024/04/06 03:11:03;;;;;;;10.65;5.18;;;;;;;;;;5088301;28;20040;-81
2024/04/06 03:13:31;;;;;;;9.77;5.43;;;;;;;;;;5054331;28;20048;-81
2024/04/06 03:15:59;;;;;;;11.07;5.20;;;;;;;;;;5054111;28;20041;-81
2024/04/06 03:18:27;;;;;;;8.18;5.07;;;;;;;;;;5054343;28;20047;-81
2024/04/06 03:20:59;;;;;;;9.20;4.75;;;;;;;;;;5057362;28;20063;-81
2024/04/06 03:23:28;;;;;;;21.23;7.10;;;;;;;;;;5058173;28;20040;-81
2024/04/06 03:25:57;;;;;;;10.63;5.53;;;;;;;;;;5057858;28;20451;-81
2024/04/06 03:28:25;;;;;;;10.57;5.10;;;;;;;;;;5041468;28;20044;-81
2024/04/06 03:30:53;;;;;;;8.75;4.90;;;;;;;;;;5057595;28;20470;-81
2024/04/06 03:33:21;;;;;;;10.82;3.75;;;;;;;;;;5057370;28;20390;-81
2024/04/06 03:35:50;;;;;;;7.07;4.65;;;;;;;;;;5057253;28;20040;-81
2024/04/06 03:38:19;;;;;;;10.70;5.22;;;;;;;;;;5041575;28;20047;-81
2024/04/06 03:40:47;;;;;;;10.15;5.25;;;;;;;;;;5041332;28;20056;-80
2024/04/06 03:43:15;;;;;;;10.25;4.68;;;;;;;;;;5057595;28;20055;-82
2024/04/06 03:45:43;;;;;;;8.63;5.13;;;;;;;;;;5057520;28;20501;-82
2024/04/06 03:48:12;;;;;;;9.68;4.70;;;;;;;;;;5040782;28;20044;-82
2024/04/06 03:50:40;;;;;;;12.48;5.40;;;;;;;;;;5040776;28;20048;-81
2024/04/06 03:53:10;;;;;;;19.80;6.03;;;;;;;;;;5057504;28;20048;-81
2024/04/06 03:55:38;;;;;;;11.13;5.25;;;;;;;;;;5057204;28;20036;-81
2024/04/06 03:58:06;;;;;;;14.50;4.47;;;;;;;;;;5057403;28;20398;-81
2024/04/06 04:00:34;;;;;;;12.85;5.25;;;;;;;;;;5057670;28;20054;-81
2024/04/06 04:03:02;;;;;;;9.00;5.57;;;;;;;;;;5056811;28;20036;-80
2024/04/06 04:05:31;;;;;;;14.10;5.13;;;;;;;;;;5057214;28;20044;-81
2024/04/06 04:07:59;;;;;;;9.00;4.95;;;;;;;;;;5057225;28;20040;-80
2024/04/06 04:10:27;;;;;;;13.82;5.60;;;;;;;;;;5056891;28;20043;-81
2024/04/06 04:12:55;;;;;;;11.65;5.13;;;;;;;;;;5085744;28;20054;-80
2024/04/06 04:15:23;;;;;;;10.88;5.20;;;;;;;;;;5094135;28;20069;-81
2024/04/06 04:17:51;;;;;;;12.85;5.60;;;;;;;;;;5093987;28;20047;-81
2024/04/06 04:20:20;;;;;;;10.88;5.22;;;;;;;;;;5093253;28;20478;-81
2024/04/06 04:22:48;;;;;;;10.95;5.90;;;;;;;;;;5093845;28;20048;-81
2024/04/06 04:25:16;;;;;;;12.75;6.47;;;;;;;;;;5093562;28;20055;-80
2024/04/06 04:27:44;;;;;;;13.15;5.95;;;;;;;;;;5093513;28;20055;-81
2024/04/06 04:30:15;;;;;;;12.23;5.00;;;;;;;;;;5093580;28;20040;-82
2024/04/06 04:32:44;;;;;;;7.50;4.70;;;;;;;;;;5093791;28;20040;-81
2024/04/06 04:35:12;;;;;;;10.65;5.40;;;;;;;;;;5093001;28;20474;-81
2024/04/06 04:37:40;;;;;;;10.20;5.20;;;;;;;;;;5076532;28;20040;-81
2024/04/06 04:40:09;;;;;;;10.05;4.72;;;;;;;;;;5093188;28;20058;-82
2024/04/06 04:42:38;;;;;;;13.43;5.82;;;;;;;;;;5076397;28;20059;-82
2024/04/06 04:45:11;;;;;;;12.80;5.47;;;;;;;;;;5075692;28;20059;-81
2024/04/06 04:47:41;;;;;;;11.52;5.28;;;;;;;;;;5093526;28;20032;-81
2024/04/06 04:50:09;;;;;;;10.05;5.43;;;;;;;;;;5091827;28;20039;-82
2024/04/06 04:52:38;;;;;;;14.85;5.90;;;;;;;;;;5092775;28;20036;-82
2024/04/06 04:55:06;;;;;;;8.63;4.85;;;;;;;;;;5092385;28;20418;-81
2024/04/06 04:57:34;;;;;;;10.05;4.82;;;;;;;;;;5059432;28;20507;-81
2024/04/06 05:00:03;;;;;;;9.10;5.20;;;;;;;;;;5092953;28;20059;-81
2024/04/06 05:02:31;;;;;;;13.32;4.88;;;;;;;;;;5092857;28;20048;-82
2024/04/06 05:04:59;;;;;;;10.23;5.05;;;;;;;;;;5092381;28;20035;-82
2024/04/06 05:07:27;;;;;;;10.50;5.07;;;;;;;;;;5092918;28;20043;-82
2024/04/06 05:09:55;;;;;;;9.43;4.93;;;;;;;;;;5076081;28;20048;-81
2024/04/06 05:12:23;;;;;;;9.90;4.22;;;;;;;;;;5092515;28;20406;-81
2024/04/06 05:14:51;;;;;;;9.98;5.35;;;;;;;;;;5091827;28;20032;-81
2024/04/06 05:17:22;;;;;;;10.63;5.72;;;;;;;;;;5091818;28;20040;-81
2024/04/06 05:19:50;;;;;;;12.82;4.80;;;;;;;;;;5090866;28;20044;-81
2024/04/06 05:22:43;;;;;;;10.20;5.20;;;;;;;;;;5092616;28;20477;-81
2024/04/06 05:25:11;;;;;;;10.25;4.80;;;;;;;;;;5075135;28;20055;-81
2024/04/06 05:27:39;;;;;;;8.93;3.95;;;;;;;;;;5092655;28;20382;-82
2024/04/06 05:30:08;;;;;;;8.70;4.30;;;;;;;;;;5092426;28;20382;-81
2024/04/06 05:32:36;;;;;;;11.63;4.80;;;;;;;;;;5092141;28;20509;-81
2024/04/06 05:35:06;;;;;;;11.50;5.35;;;;;;;;;;5092057;28;20027;-80
2024/04/06 05:37:34;;;;;;;11.25;4.82;;;;;;;;;;5092151;28;20043;-81
2024/04/06 05:40:03;;;;;;;12.77;5.60;;;;;;;;;;5092355;28;20040;-81
2024/04/06 05:42:31;;;;;;;10.98;5.47;;;;;;;;;;5091316;28;20482;-80
2024/04/06 05:44:59;;;;;;;13.95;5.10;;;;;;;;;;5092030;28;20051;-82
2024/04/06 05:47:28;;;;;;;15.27;5.10;;;;;;;;;;5075889;28;20370;-81
2024/04/06 05:49:56;;;;;;;12.00;5.80;;;;;;;;;;5092151;28;20050;-81
2024/04/06 05:52:24;;;;;;;12.02;4.68;;;;;;;;;;5075766;28;20497;-81
2024/04/06 05:54:52;;;;;;;9.20;4.93;;;;;;;;;;5091825;28;20044;-81
2024/04/06 05:57:20;;;;;;;9.65;4.72;;;;;;;;;;5092171;28;20051;-81
2024/04/06 05:59:49;;;;;;;13.45;4.82;;;;;;;;;;5091850;28;20035;-81
2024/04/06 06:02:17;;;;;;;11.77;5.13;;;;;;;;;;5092153;28;20070;-81
2024/04/06 06:04:46;;;;;;;12.40;4.50;;;;;;;;;;5092191;28;20048;-80
2024/04/06 06:07:14;;;;;;;12.77;4.85;;;;;;;;;;5091793;28;20044;-81
2024/04/06 06:09:42;;;;;;;9.93;5.30;;;;;;;;;;5091513;28;20044;-81
2024/04/06 06:12:10;;;;;;;10.80;5.47;;;;;;;;;;5091869;28;20063;-82
2024/04/06 06:14:39;;;;;;;13.68;5.60;;;;;;;;;;5091565;28;20047;-81
2024/04/06 06:17:07;;;;;;;9.88;4.55;;;;;;;;;;5091702;28;20401;-81
2024/04/06 06:19:36;;;;;;;8.15;4.72;;;;;;;;;;5091896;28;20063;-81
2024/04/06 06:22:04;;;;;;;11.05;5.18;;;;;;;;;;5091476;28;20051;-81
2024/04/06 06:24:32;;;;;;;12.70;5.43;;;;;;;;;;5074942;28;20069;-81
2024/04/06 06:27:01;;;;;;;12.55;5.05;;;;;;;;;;5074662;28;20051;-82
2024/04/06 06:29:33;;;;;;;10.20;4.75;;;;;;;;;;5091491;28;20029;-81
2024/04/06 06:32:02;;;;;;;12.98;5.28;;;;;;;;;;5074698;28;20044;-81
2024/04/06 06:34:30;;;;;;;12.20;4.78;;;;;;;;;;5091450;28;20385;-82
2024/04/06 06:36:59;;;;;;;12.93;5.32;;;;;;;;;;5091221;28;20039;-82
2024/04/06 06:39:29;;;;;;;12.52;5.35;;;;;;;;;;5091413;28;20046;-82
2024/04/06 06:41:58;;;;;;;9.55;4.82;;;;;;;;;;5091621;28;20044;-82
2024/04/06 06:44:26;;;;;;;10.25;5.30;;;;;;;;;;5091358;28;20042;-82
2024/04/06 06:46:55;;;;;;;10.35;5.28;;;;;;;;;;5074823;28;20028;-82
2024/04/06 06:49:23;;;;;;;10.77;5.55;;;;;;;;;;5091338;28;20032;-81
2024/04/06 06:51:51;;;;;;;13.52;6.15;;;;;;;;;;5091849;28;20040;-81
2024/04/06 06:54:19;;;;;;;11.95;5.18;;;;;;;;;;5092541;28;20504;-81
2024/04/06 06:56:48;;;;;;;10.75;5.20;;;;;;;;;;5094978;28;20110;-82
2024/04/06 06:59:16;;;;;;;10.35;5.47;;;;;;;;;;5078096;28;20136;-82
2024/04/06 07:01:44;;;;;;;10.57;5.00;;;;;;;;;;5060909;28;20048;-82
2024/04/06 07:04:12;;;;;;;10.98;5.10;;;;;;;;;;5078712;28;20105;-81
2024/04/06 07:06:41;;;;;;;12.85;6.00;;;;;;;;;;5095137;28;20043;-83
2024/04/06 07:09:09;;;;;;;21.10;5.50;;;;;;;;;;5061002;28;20482;-81
2024/04/06 07:11:39;;;;;;;9.18;5.20;;;;;;;;;;5094656;28;20051;-82
2024/04/06 07:14:11;;;;;;;10.98;4.60;;;;;;;;;;5094676;28;20058;-82
2024/04/06 07:16:39;;;;;;;9.85;5.65;;;;;;;;;;5077569;28;20056;-81
2024/04/06 07:19:07;;;;;;;12.30;5.18;;;;;;;;;;5078095;28;20048;-81
2024/04/06 07:21:36;;;;;;;15.32;6.18;;;;;;;;;;5094591;28;20042;-82
2024/04/06 07:24:06;;;;;;;12.57;5.90;;;;;;;;;;5077763;28;20048;-82
2024/04/06 07:26:34;;;;;;;14.45;6.22;;;;;;;;;;5077182;28;20051;-81
2024/04/06 07:29:02;;;;;;;10.18;4.85;;;;;;;;;;5077457;28;20048;-81
2024/04/06 07:31:30;;;;;;;18.05;5.30;;;;;;;;;;5094735;28;20044;-82
2024/04/06 07:34:03;;;;;;;11.38;5.75;;;;;;;;;;5094566;28;20047;-81
2024/04/06 07:36:31;;;;;;;13.73;5.38;;;;;;;;;;5094379;28;20032;-82
2024/04/06 07:38:59;;;;;;;13.10;6.35;;;;;;;;;;5059713;28;20044;-81
2024/04/06 07:41:27;;;;;;;13.45;5.78;;;;;;;;;;5094697;28;20478;-83
2024/04/06 07:43:56;;;;;;;19.95;6.65;;;;;;;;;;5077268;28;20048;-82
2024/04/06 07:46:24;;;;;;;10.50;5.80;;;;;;;;;;5094340;28;20047;-82
2024/04/06 07:48:52;;;;;;;18.05;5.90;;;;;;;;;;5094527;28;20055;-81
2024/04/06 07:51:20;;;;;;;17.42;5.50;;;;;;;;;;5077344;28;20055;-82
2024/04/06 07:53:48;;;;;;;12.88;5.95;;;;;;;;;;5093809;28;20040;-82
2024/04/06 07:56:16;;;;;;;11.38;5.88;;;;;;;;;;5094050;28;20470;-82
2024/04/06 07:58:44;;;;;;;14.50;5.80;;;;;;;;;;5077429;28;20044;-82
2024/04/06 08:01:12;;;;;;;16.65;5.18;;;;;;;;;;5093956;28;20386;-82
2024/04/06 08:03:40;;;;;;;13.02;5.70;;;;;;;;;;5094128;28;20050;-82
2024/04/06 08:06:08;;;;;;;12.40;5.90;;;;;;;;;;5093831;28;20032;-81
2024/04/06 08:08:37;;;;;;;21.38;6.00;;;;;;;;;;5077209;28;20048;-81
2024/04/06 08:11:05;;;;;;;13.63;6.28;;;;;;;;;;5076152;28;20052;-81
2024/04/06 08:13:33;;;;;;;15.88;6.38;;;;;;;;;;5057475;28;20045;-82
2024/04/06 08:16:01;;;;;;;11.65;6.00;;;;;;;;;;5040686;28;20040;-81
2024/04/06 08:18:29;;;;;;;28.90;5.78;;;;;;;;;;5039651;28;20505;-83
2024/04/06 08:20:57;;;;;;;15.75;6.00;;;;;;;;;;5040396;28;20052;-82
2024/04/06 08:23:25;;;;;;;12.80;6.10;;;;;;;;;;5056770;28;20588;-81
2024/04/06 08:25:54;;;;;;;13.60;5.47;;;;;;;;;;5056725;28;20044;-81
2024/04/06 08:28:22;;;;;;;28.98;6.55;;;;;;;;;;5056965;28;20087;-82
2024/04/06 08:30:50;;;;;;;28.52;7.28;;;;;;;;;;5039967;28;20040;-82
2024/04/06 08:33:19;;;;;;;15.82;6.15;;;;;;;;;;5056559;28;20044;-82
2024/04/06 08:35:47;;;;;;;45.33;6.45;;;;;;;;;;5056868;28;20045;-83
2024/04/06 08:38:16;;;;;;;20.15;6.72;;;;;;;;;;5056399;28;20041;-82
2024/04/06 08:40:46;;;;;;;15.25;6.00;;;;;;;;;;5038140;28;20037;-83
2024/04/06 08:43:17;;;;;;;13.73;5.53;;;;;;;;;;5047744;28;20040;-82
2024/04/06 08:45:46;;;;;;;16.20;5.70;;;;;;;;;;5055616;28;20040;-82
2024/04/06 08:48:15;;;;;;;15.27;5.88;;;;;;;;;;5019425;28;20067;-84
2024/04/06 08:50:45;;;;;;;9.35;5.75;;;;;;;;;;5034102;28;20033;-82
2024/04/06 08:53:13;;;;;;;14.73;6.55;;;;;;;;;;5045094;28;20040;-84
2024/04/06 08:55:42;;;;;;;13.18;6.38;;;;;;;;;;5047047;28;20037;-81
2024/04/06 08:58:11;;;;;;;9.13;4.75;;;;;;;;;;5052092;28;20390;-82
2024/04/06 09:00:42;;;;;;;14.52;5.80;;;;;;;;;;5026878;28;20041;-81
2024/04/06 09:03:10;;;;;;;16.17;6.18;;;;;;;;;;5020130;28;20052;-82
2024/04/06 09:05:43;;;;;;;13.02;6.00;;;;;;;;;;5035973;28;20033;-82
2024/04/06 09:08:18;;;;;;;11.73;5.43;;;;;;;;;;5020295;28;20071;-83
2024/04/06 09:10:56;;;;;;;16.42;6.32;;;;;;;;;;5020948;28;20033;-82
2024/04/06 09:13:25;;;;;;;18.77;5.60;;;;;;;;;;5031651;28;20474;-82
2024/04/06 09:15:53;;;;;;;8.65;5.30;;;;;;;;;;5031966;28;20048;-81
2024/04/06 09:21:17;;;;;;;14.23;5.53;;;;;;;;;;5065726;28;20043;-84
2024/04/06 09:23:50;;;;;;;13.05;5.65;;;;;;;;;;5049229;28;20043;-83
2024/04/06 09:26:22;;;;;;;13.20;5.65;;;;;;;;;;5036237;28;20032;-85
2024/04/06 09:28:52;;;;;;;14.10;5.80;;;;;;;;;;5079613;28;20032;-85
2024/04/06 09:31:23;;;;;;;14.30;6.40;;;;;;;;;;5046315;28;20028;-84
2024/04/06 09:33:58;;;;;;;13.82;6.00;;;;;;;;;;5078145;28;20042;-84
2024/04/06 09:36:27;;;;;;;12.45;5.38;;;;;;;;;;5046488;28;20180;-84
2024/04/06 09:38:57;;;;;;;10.52;5.72;;;;;;;;;;5017480;28;20045;-82
2024/04/06 09:41:25;;;;;;;17.98;5.65;;;;;;;;;;5035386;28;20041;-83
2024/04/06 09:43:57;;;;;;;11.82;5.72;;;;;;;;;;5018339;28;20127;-82
2024/04/06 09:46:25;;;;;;;;;;;;;;;;;;5036116;28;20033;-82
2024/04/06 09:48:54;;;;;;;11.02;5.32;;;;;;;;;;5019050;28;20000;-83
2024/04/06 09:51:23;;;;;;;12.15;5.80;;;;;;;;;;5035228;28;20041;-83
2024/04/06 09:53:52;;;;;;;20.73;5.88;;;;;;;;;;5019357;28;20049;-83
2024/04/06 09:56:21;;;;;;;12.57;5.78;;;;;;;;;;5035282;28;20041;-84
2024/04/06 09:58:49;;;;;;;13.57;5.80;;;;;;;;;;5035590;28;20045;-84
2024/04/06 10:01:19;;;;;;;17.52;6.03;;;;;;;;;;5035164;28;20060;-83
2024/04/06 10:03:49;;;;;;;8.93;6.05;;;;;;;;;;5018259;28;20049;-82
2024/04/06 10:06:18;;;;;;;12.48;5.25;;;;;;;;;;5018716;28;20483;-84
2024/04/06 10:08:53;;;;;;;13.60;5.40;;;;;;;;;;5035144;28;20124;-83
2024/04/06 10:11:24;;;;;;;8.63;5.22;;;;;;;;;;5034671;28;20091;-83
2024/04/06 10:13:54;;;;;;;16.00;5.35;;;;;;;;;;5018999;28;20045;-83
2024/04/06 10:16:22;;;;;;;16.02;6.10;;;;;;;;;;5035053;28;20045;-85
2024/04/06 10:18:51;;;;;;;21.10;5.20;;;;;;;;;;5018221;28;20501;-83
2024/04/06 10:21:20;;;;;;;17.45;5.20;;;;;;;;;;5018150;28;20060;-82
2024/04/06 10:23:48;;;;;;;7.63;4.60;;;;;;;;;;5030799;28;20044;-84
2024/04/06 10:26:17;;;;;;;8.85;5.30;;;;;;;;;;5054924;28;20382;-84
2024/04/06 10:28:45;;;;;;;11.02;5.10;;;;;;;;;;5039209;28;20048;-85
2024/04/06 10:31:14;;;;;;;11.10;5.65;;;;;;;;;;5025166;28;20498;-83
2024/04/06 10:33:42;;;;;;;11.50;5.32;;;;;;;;;;5041964;28;20053;-84
2024/04/06 10:36:12;;;;;;;16.23;5.40;;;;;;;;;;5058564;28;20048;-86
2024/04/06 10:38:42;;;;;;;11.18;5.80;;;;;;;;;;5020304;28;20048;-84
2024/04/06 10:41:10;;;;;;;10.32;4.82;;;;;;;;;;5037390;28;20036;-86
2024/04/06 10:43:38;;;;;;;10.48;5.28;;;;;;;;;;5020363;28;20056;-83
2024/04/06 10:46:07;;;;;;;19.05;5.38;;;;;;;;;;5037234;28;20044;-83
2024/04/06 10:48:39;;;;;;;10.23;4.70;;;;;;;;;;5019672;28;20494;-83
2024/04/06 10:51:07;;;;;;;7.95;4.07;;;;;;;;;;5008530;28;20395;-82
2024/04/06 10:53:36;;;;;;;11.38;4.78;;;;;;;;;;5057322;28;20039;-81
2024/04/06 10:56:05;;;;;;;7.53;4.57;;;;;;;;;;5056293;28;20056;-82
2024/04/06 10:58:33;;;;;;;8.07;4.18;;;;;;;;;;5040295;28;20044;-82
2024/04/06 11:01:12;;;;;;;6.68;3.90;;;;;;;;;;5039483;28;20044;-83
2024/04/06 11:03:42;;;;;;;6.07;3.47;;;;;;;;;;5057102;28;20055;-83
2024/04/06 11:06:12;;;;;;;10.38;3.80;;;;;;;;;;5054922;28;20048;-84
2024/04/06 11:08:43;;;;;;;6.07;3.75;;;;;;;;;;5055422;28;20059;-83
2024/04/06 11:11:15;;;;;;;4.97;3.30;;;;;;;;;;5056249;28;20037;-83
2024/04/06 11:13:44;;;;;;;6.03;4.05;;;;;;;;;;5036888;28;20048;-82
2024/04/06 11:16:13;;;;;;;7.38;3.88;;;;;;;;;;5039515;28;20158;-84
2024/04/06 11:18:42;;;;;;;8.63;3.63;;;;;;;;;;5057069;28;20044;-84
2024/04/06 11:21:11;;;;;;;6.07;3.72;;;;;;;;;;5052455;28;20029;-84
2024/04/06 11:23:40;;;;;;;7.88;3.70;;;;;;;;;;5037216;28;20040;-85
2024/04/06 11:26:09;;;;;;;7.63;3.50;;;;;;;;;;5011744;28;20477;-82
2024/04/06 11:28:38;;;;;;;6.80;3.53;;;;;;;;;;5022863;28;20064;-81
2024/04/06 11:31:06;;;;;;;6.13;4.07;;;;;;;;;;5036705;28;20056;-82
2024/04/06 11:33:34;;;;;;;8.30;3.78;;;;;;;;;;5036760;28;20043;-82
2024/04/06 11:36:02;;;;;;;9.55;4.30;;;;;;;;;;5020381;28;20048;-84
2024/04/06 11:38:30;;;;;;;5.47;3.72;;;;;;;;;;5020471;28;20049;-82
2024/04/06 11:40:59;;;;;;;5.70;3.55;;;;;;;;;;5019488;28;20056;-83
2024/04/06 11:43:27;;;;;;;5.80;3.55;;;;;;;;;;5036969;28;20052;-82
2024/04/06 11:45:57;;;;;;;6.10;3.30;;;;;;;;;;5020412;28;20051;-82
2024/04/06 11:48:25;;;;;;;4.95;3.00;;;;;;;;;;5003546;28;20049;-85
2024/04/06 11:50:53;;;;;;;8.82;3.38;;;;;;;;;;5038255;28;20044;-85
2024/04/06 11:53:21;;;;;;;5.93;2.40;;;;;;;;;;5040125;28;20036;-82
2024/04/06 11:55:50;;;;;;;5.30;2.20;;;;;;;;;;5054654;28;20036;-82
2024/04/06 11:58:18;;;;;;;4.35;2.20;;;;;;;;;;5039487;28;20498;-83
2024/04/06 12:00:46;;;;;;;5.30;2.92;;;;;;;;;;5039783;28;20052;-83
2024/04/06 12:03:14;;;;;;;3.13;2.00;;;;;;;;;;5037052;28;20041;-82
2024/04/06 12:05:43;;;;;;;3.50;1.60;;;;;;;;;;5042715;28;20037;-83
2024/04/06 12:08:12;;;;;;;4.60;1.60;;;;;;;;;;5040067;28;20048;-82
2024/04/06 12:10:40;;;;;;;3.15;1.88;;;;;;;;;;5056200;28;20051;-81
2024/04/06 12:13:08;;;;;;;3.67;2.10;;;;;;;;;;5088453;28;20059;-80
2024/04/06 12:15:40;;;;;;;3.05;1.85;;;;;;;;;;5093201;28;20039;-83
2024/04/06 12:18:08;;;;;;;3.63;1.50;;;;;;;;;;5093026;28;20047;-82
2024/04/06 12:20:37;;;;;;;3.72;1.15;;;;;;;;;;5093106;28;20414;-81
2024/04/06 12:23:05;;;;;;;2.80;1.50;;;;;;;;;;5072501;28;20028;-81
2024/04/06 12:25:33;;;;;;;2.83;1.98;;;;;;;;;;5072155;28;20077;-82
2024/04/06 12:28:01;;;;;;;3.20;1.42;;;;;;;;;;5072656;28;20425;-81
2024/04/06 12:30:29;;;;;;;2.05;1.40;;;;;;;;;;5056020;28;20466;-81
2024/04/06 12:32:58;;;;;;;2.20;1.70;;;;;;;;;;5055527;28;20040;-82
2024/04/06 12:35:26;;;;;;;1.83;0.98;;;;;;;;;;5056085;28;20418;-82
2024/04/06 12:37:55;;;;;;;2.05;1.63;;;;;;;;;;5072472;28;20040;-85
2024/04/06 12:40:25;;;;;;;2.70;1.38;;;;;;;;;;5055933;28;20032;-83
2024/04/06 12:42:54;;;;;;;2.40;1.58;;;;;;;;;;5062785;28;20036;-83
2024/04/06 12:45:22;;;;;;;3.58;1.48;;;;;;;;;;5092356;28;20036;-83
2024/04/06 12:47:51;;;;;;;3.65;1.50;;;;;;;;;;5092793;28;20470;-85
2024/04/06 12:50:19;;;;;;;3.28;1.70;;;;;;;;;;5092282;28;20043;-82
2024/04/06 12:52:47;;;;;;;6.25;1.70;;;;;;;;;;5074452;28;20047;-83
2024/04/06 12:55:15;;;;;;;2.83;1.98;;;;;;;;;;5092296;28;20066;-84
2024/04/06 12:57:44;;;;;;;3.08;1.80;;;;;;;;;;5091781;28;20036;-85
2024/04/06 13:00:15;;;;;;;1.98;1.52;;;;;;;;;;5092204;28;20039;-81
2024/04/06 13:02:44;;;;;;;2.85;1.30;;;;;;;;;;5092483;28;20373;-83
2024/04/06 13:05:12;;;;;;;3.75;2.38;;;;;;;;;;5075540;28;20032;-85
2024/04/06 13:07:41;;;;;;;4.45;1.70;;;;;;;;;;5075007;28;20047;-83
2024/04/06 13:10:09;;;;;;;3.72;1.83;;;;;;;;;;5092353;28;20040;-83
2024/04/06 13:12:38;;;;;;;2.90;1.73;;;;;;;;;;5057164;28;20790;-84
2024/04/06 13:15:10;;;;;;;3.63;1.80;;;;;;;;;;5091015;28;20043;-84
2024/04/06 13:17:43;;;;;;;4.47;1.80;;;;;;;;;;5090946;28;20055;-83
2024/04/06 13:22:45;;;;;;;2.35;1.30;;;;;;;;;;5091942;28;20384;-86
2024/04/06 13:25:18;;;;;;;3.10;2.10;;;;;;;;;;5092294;28;20047;-84
2024/04/06 13:28:10;;;;;;;3.92;1.90;;;;;;;;;;5095850;28;20048;-86
2024/04/06 13:30:41;;;;;;;2.95;1.92;;;;;;;;;;5091929;28;20035;-85
2024/04/06 13:33:34;;;;;;;3.22;1.50;;;;;;;;;;5092002;28;20054;-84
2024/04/06 13:36:04;;;;;;;3.75;1.98;;;;;;;;;;5092694;28;20050;-84
2024/04/06 13:38:32;;;;;;;5.05;2.00;;;;;;;;;;5074847;28;20048;-85
2024/04/06 13:41:00;;;;;;;3.58;1.50;;;;;;;;;;5092082;28;20401;-86
2024/04/06 13:43:29;;;;;;;3.55;1.70;;;;;;;;;;5075451;28;20047;-85
2024/04/06 13:45:58;;;;;;;2.97;1.70;;;;;;;;;;5074761;28;20036;-85
2024/04/06 13:48:26;;;;;;;2.47;1.80;;;;;;;;;;5091187;28;20500;-86
2024/04/06 13:50:54;;;;;;;3.30;1.80;;;;;;;;;;5091760;28;20466;-85
2024/04/06 13:53:23;;;;;;;2.97;1.65;;;;;;;;;;5074619;28;20482;-85
2024/04/06 13:55:51;;;;;;;5.13;1.90;;;;;;;;;;5075244;28;20036;-87
2024/04/06 13:58:19;;;;;;;3.28;1.80;;;;;;;;;;5073753;28;20044;-86
2024/04/06 14:00:48;;;;;;;2.70;1.85;;;;;;;;;;5073231;28;20060;-85
2024/04/06 14:06:10;;;;;;;3.28;1.95;;;;;;;;;;5074291;28;20044;-86
2024/04/06 14:08:38;;;;;;;2.53;1.70;;;;;;;;;;5073083;28;20036;-85
2024/04/06 14:11:07;;;;;;;6.10;2.10;;;;;;;;;;5090259;28;20110;-83
2024/04/06 14:14:03;;;;;;;2.90;2.55;;;;;;;;;;5057265;28;20063;-84
2024/04/06 14:16:32;;;;;;;3.42;1.90;;;;;;;;;;5032965;28;20033;-83
2024/04/06 14:19:03;;;;;;;3.63;1.73;;;;;;;;;;5034070;28;20134;-84
2024/04/06 14:21:31;;;;;;;5.75;2.10;;;;;;;;;;5053276;28;20049;-83
2024/04/06 14:23:59;;;;;;;3.50;1.60;;;;;;;;;;5038937;28;20056;-84
2024/04/06 14:26:28;;;;;;;4.10;1.77;;;;;;;;;;5035111;28;20041;-84
2024/04/06 14:28:56;;;;;;;3.08;2.30;;;;;;;;;;5051775;28;20043;-84
2024/04/06 14:31:24;;;;;;;4.60;1.92;;;;;;;;;;5038284;28;20048;-85
2024/04/06 14:33:53;;;;;;;3.58;2.08;;;;;;;;;;5038514;28;20415;-84
2024/04/06 14:36:21;;;;;;;2.58;1.85;;;;;;;;;;5041372;28;20055;-85
2024/04/06 14:39:08;;;;;;;4.07;2.10;;;;;;;;;;5054869;28;20059;-83
2024/04/06 14:41:36;;;;;;;2.67;1.98;;;;;;;;;;5033931;28;20033;-86
2024/04/06 14:44:05;;;;;;;4.78;2.30;;;;;;;;;;5017922;28;20047;-83
2024/04/06 14:46:33;;;;;;;4.13;2.20;;;;;;;;;;5018380;28;20033;-84
2024/04/06 14:49:01;;;;;;;4.10;2.20;;;;;;;;;;5021628;28;20036;-84
2024/04/06 14:51:29;;;;;;;4.88;2.53;;;;;;;;;;5055584;28;20032;-84
2024/04/06 14:53:58;;;;;;;5.78;2.22;;;;;;;;;;5054077;28;20513;-84
2024/04/06 14:56:29;;;;;;;5.18;2.80;;;;;;;;;;5037930;28;20040;-85
2024/04/06 14:58:59;;;;;;;4.05;2.38;;;;;;;;;;5054535;28;20052;-85
2024/04/06 15:01:27;;;;;;;3.80;2.20;;;;;;;;;;5054809;28;20055;-84